sensor_id;sensor_type;location;lat;lon;timestamp;P1;durP1;ratioP1;P2;durP2;ratioP2
27438;SDS011;14887;51.252;7.470;2022-10-16T00:01:45;4.93;;;2.87;;
27438;SDS011;14887;51.252;7.470;2022-10-16T00:04:11;4.83;;;2.60;;
27438;SDS011;14887;51.252;7.470;2022-10-16T00:06:38;5.33;;;2.60;;
27438;SDS011;14887;51.252;7.470;2022-10-16T00:09:03;11.03;;;2.60;;
27438;SDS011;14887;51.252;7.470;2022-10-16T00:11:32;2.83;;;2.57;;
27438;SDS011;14887;51.252;7.470;2022-10-16T00:14:03;4.13;;;2.07;;
27438;SDS011;14887;51.252;7.470;2022-10-16T00:16:31;4.07;;;2.13;;
27438;SDS011;14887;51.252;7.470;2022-10-16T00:18:57;11.87;;;2.73;;
27438;SDS011;14887;51.252;7.470;2022-10-16T00:21:24;11.60;;;1.90;;
27438;SDS011;14887;51.252;7.470;2022-10-16T00:23:59;8.17;;;2.50;;
27438;SDS011;14887;51.252;7.470;2022-10-16T00:26:27;3.93;;;2.13;;
27438;SDS011;14887;51.252;7.470;2022-10-16T00:28:54;5.23;;;2.40;;
27438;SDS011;14887;51.252;7.470;2022-10-16T00:31:21;8.73;;;2.60;;
27438;SDS011;14887;51.252;7.470;2022-10-16T00:33:47;4.90;;;2.50;;
27438;SDS011;14887;51.252;7.470;2022-10-16T00:36:14;3.70;;;2.60;;
27438;SDS011;14887;51.252;7.470;2022-10-16T00:38:42;3.77;;;2.63;;
27438;SDS011;14887;51.252;7.470;2022-10-16T00:41:09;4.97;;;2.60;;
27438;SDS011;14887;51.252;7.470;2022-10-16T00:43:39;3.40;;;2.50;;
27438;SDS011;14887;51.252;7.470;2022-10-16T00:46:15;4.27;;;2.53;;
27438;SDS011;14887;51.252;7.470;2022-10-16T00:49:05;5.20;;;2.80;;
27438;SDS011;14887;51.252;7.470;2022-10-16T00:51:35;3.27;;;2.93;;
27438;SDS011;14887;51.252;7.470;2022-10-16T00:54:08;2.83;;;2.63;;
27438;SDS011;14887;51.252;7.470;2022-10-16T00:56:42;9.40;;;3.60;;
27438;SDS011;14887;51.252;7.470;2022-10-16T00:59:19;3.87;;;3.17;;
27438;SDS011;14887;51.252;7.470;2022-10-16T01:01:51;5.03;;;3.13;;
27438;SDS011;14887;51.252;7.470;2022-10-16T01:04:17;3.70;;;2.63;;
27438;SDS011;14887;51.252;7.470;2022-10-16T01:07:05;5.20;;;3.20;;
27438;SDS011;14887;51.252;7.470;2022-10-16T01:09:40;3.70;;;2.90;;
27438;SDS011;14887;51.252;7.470;2022-10-16T01:12:29;3.23;;;2.73;;
27438;SDS011;14887;51.252;7.470;2022-10-16T01:15:11;4.63;;;3.00;;
27438;SDS011;14887;51.252;7.470;2022-10-16T01:17:45;6.80;;;3.13;;
27438;SDS011;14887;51.252;7.470;2022-10-16T01:20:35;4.47;;;3.50;;
27438;SDS011;14887;51.252;7.470;2022-10-16T01:23:07;4.40;;;3.30;;
27438;SDS011;14887;51.252;7.470;2022-10-16T01:28:13;4.33;;;3.27;;
27438;SDS011;14887;51.252;7.470;2022-10-16T01:30:40;5.20;;;3.17;;
27438;SDS011;14887;51.252;7.470;2022-10-16T01:33:10;4.23;;;3.00;;
27438;SDS011;14887;51.252;7.470;2022-10-16T01:35:43;6.27;;;3.50;;
27438;SDS011;14887;51.252;7.470;2022-10-16T01:38:16;10.83;;;3.57;;
27438;SDS011;14887;51.252;7.470;2022-10-16T01:41:01;5.53;;;3.50;;
27438;SDS011;14887;51.252;7.470;2022-10-16T01:43:33;8.87;;;4.00;;
27438;SDS011;14887;51.252;7.470;2022-10-16T01:46:02;10.27;;;3.37;;
27438;SDS011;14887;51.252;7.470;2022-10-16T01:48:28;6.83;;;3.50;;
27438;SDS011;14887;51.252;7.470;2022-10-16T01:50:59;8.83;;;3.87;;
27438;SDS011;14887;51.252;7.470;2022-10-16T01:53:29;3.53;;;3.20;;
27438;SDS011;14887;51.252;7.470;2022-10-16T01:55:55;6.63;;;4.30;;
27438;SDS011;14887;51.252;7.470;2022-10-16T01:58:24;4.93;;;3.40;;
27438;SDS011;14887;51.252;7.470;2022-10-16T02:00:52;5.97;;;3.90;;
27438;SDS011;14887;51.252;7.470;2022-10-16T02:03:19;8.70;;;3.63;;
27438;SDS011;14887;51.252;7.470;2022-10-16T02:05:47;6.53;;;3.40;;
27438;SDS011;14887;51.252;7.470;2022-10-16T02:08:16;9.33;;;3.83;;
27438;SDS011;14887;51.252;7.470;2022-10-16T02:10:43;5.30;;;3.83;;
27438;SDS011;14887;51.252;7.470;2022-10-16T02:13:11;3.30;;;3.00;;
27438;SDS011;14887;51.252;7.470;2022-10-16T02:15:40;3.73;;;3.33;;
27438;SDS011;14887;51.252;7.470;2022-10-16T02:18:06;4.40;;;4.00;;
27438;SDS011;14887;51.252;7.470;2022-10-16T02:20:36;9.50;;;3.60;;
27438;SDS011;14887;51.252;7.470;2022-10-16T02:23:13;10.13;;;3.33;;
27438;SDS011;14887;51.252;7.470;2022-10-16T02:25:52;9.00;;;4.00;;
27438;SDS011;14887;51.252;7.470;2022-10-16T02:28:25;11.83;;;4.10;;
27438;SDS011;14887;51.252;7.470;2022-10-16T02:30:56;5.30;;;4.20;;
27438;SDS011;14887;51.252;7.470;2022-10-16T02:33:28;5.37;;;4.10;;
27438;SDS011;14887;51.252;7.470;2022-10-16T02:35:55;4.33;;;3.43;;
27438;SDS011;14887;51.252;7.470;2022-10-16T02:38:23;4.87;;;3.60;;
27438;SDS011;14887;51.252;7.470;2022-10-16T02:40:50;3.77;;;3.40;;
27438;SDS011;14887;51.252;7.470;2022-10-16T02:43:16;5.10;;;4.27;;
27438;SDS011;14887;51.252;7.470;2022-10-16T02:45:42;4.10;;;3.63;;
27438;SDS011;14887;51.252;7.470;2022-10-16T02:48:08;5.63;;;3.87;;
27438;SDS011;14887;51.252;7.470;2022-10-16T02:50:33;7.83;;;3.67;;
27438;SDS011;14887;51.252;7.470;2022-10-16T02:52:59;3.50;;;3.20;;
27438;SDS011;14887;51.252;7.470;2022-10-16T02:55:24;6.13;;;3.90;;
27438;SDS011;14887;51.252;7.470;2022-10-16T02:57:50;3.90;;;3.23;;
27438;SDS011;14887;51.252;7.470;2022-10-16T03:00:16;4.33;;;3.40;;
27438;SDS011;14887;51.252;7.470;2022-10-16T03:02:42;4.07;;;3.60;;
27438;SDS011;14887;51.252;7.470;2022-10-16T03:05:08;4.00;;;3.30;;
27438;SDS011;14887;51.252;7.470;2022-10-16T03:07:34;2.67;;;2.47;;
27438;SDS011;14887;51.252;7.470;2022-10-16T03:09:59;3.13;;;2.67;;
27438;SDS011;14887;51.252;7.470;2022-10-16T03:12:26;4.30;;;2.40;;
27438;SDS011;14887;51.252;7.470;2022-10-16T03:14:52;6.20;;;3.97;;
27438;SDS011;14887;51.252;7.470;2022-10-16T03:17:18;3.63;;;2.77;;
27438;SDS011;14887;51.252;7.470;2022-10-16T03:19:43;7.63;;;3.57;;
27438;SDS011;14887;51.252;7.470;2022-10-16T03:22:09;2.60;;;2.40;;
27438;SDS011;14887;51.252;7.470;2022-10-16T03:24:34;5.03;;;3.07;;
27438;SDS011;14887;51.252;7.470;2022-10-16T03:27:00;2.70;;;2.40;;
27438;SDS011;14887;51.252;7.470;2022-10-16T03:29:26;2.93;;;2.57;;
27438;SDS011;14887;51.252;7.470;2022-10-16T03:31:52;6.37;;;3.00;;
27438;SDS011;14887;51.252;7.470;2022-10-16T03:34:18;2.40;;;2.20;;
27438;SDS011;14887;51.252;7.470;2022-10-16T03:36:43;2.20;;;2.00;;
27438;SDS011;14887;51.252;7.470;2022-10-16T03:39:09;11.77;;;3.33;;
27438;SDS011;14887;51.252;7.470;2022-10-16T03:41:40;3.90;;;2.87;;
27438;SDS011;14887;51.252;7.470;2022-10-16T03:44:06;2.27;;;2.00;;
27438;SDS011;14887;51.252;7.470;2022-10-16T03:46:32;3.53;;;2.00;;
27438;SDS011;14887;51.252;7.470;2022-10-16T03:48:57;3.80;;;2.33;;
27438;SDS011;14887;51.252;7.470;2022-10-16T03:51:23;3.53;;;2.43;;
27438;SDS011;14887;51.252;7.470;2022-10-16T03:53:48;10.10;;;2.60;;
27438;SDS011;14887;51.252;7.470;2022-10-16T03:56:14;2.20;;;2.00;;
27438;SDS011;14887;51.252;7.470;2022-10-16T03:58:39;5.60;;;2.03;;
27438;SDS011;14887;51.252;7.470;2022-10-16T04:01:05;4.90;;;2.20;;
27438;SDS011;14887;51.252;7.470;2022-10-16T04:03:30;7.40;;;2.27;;
27438;SDS011;14887;51.252;7.470;2022-10-16T04:05:56;2.03;;;1.80;;
27438;SDS011;14887;51.252;7.470;2022-10-16T04:08:22;2.90;;;2.70;;
27438;SDS011;14887;51.252;7.470;2022-10-16T04:10:47;5.63;;;2.63;;
27438;SDS011;14887;51.252;7.470;2022-10-16T04:13:13;3.07;;;2.27;;
27438;SDS011;14887;51.252;7.470;2022-10-16T04:15:39;2.63;;;2.10;;
27438;SDS011;14887;51.252;7.470;2022-10-16T04:18:04;2.70;;;1.97;;
27438;SDS011;14887;51.252;7.470;2022-10-16T04:20:31;2.30;;;2.03;;
27438;SDS011;14887;51.252;7.470;2022-10-16T04:22:56;2.67;;;1.87;;
27438;SDS011;14887;51.252;7.470;2022-10-16T04:25:22;2.40;;;1.80;;
27438;SDS011;14887;51.252;7.470;2022-10-16T04:27:47;2.50;;;1.90;;
27438;SDS011;14887;51.252;7.470;2022-10-16T04:30:13;1.67;;;1.57;;
27438;SDS011;14887;51.252;7.470;2022-10-16T04:32:39;1.93;;;1.67;;
27438;SDS011;14887;51.252;7.470;2022-10-16T04:35:05;7.43;;;1.73;;
27438;SDS011;14887;51.252;7.470;2022-10-16T04:37:31;2.10;;;1.90;;
27438;SDS011;14887;51.252;7.470;2022-10-16T04:39:56;1.73;;;1.63;;
27438;SDS011;14887;51.252;7.470;2022-10-16T04:42:22;8.40;;;1.80;;
27438;SDS011;14887;51.252;7.470;2022-10-16T04:44:48;2.70;;;2.00;;
27438;SDS011;14887;51.252;7.470;2022-10-16T04:47:13;1.73;;;1.63;;
27438;SDS011;14887;51.252;7.470;2022-10-16T04:49:39;1.70;;;1.60;;
27438;SDS011;14887;51.252;7.470;2022-10-16T04:52:04;2.70;;;1.80;;
27438;SDS011;14887;51.252;7.470;2022-10-16T04:54:30;1.73;;;1.63;;
27438;SDS011;14887;51.252;7.470;2022-10-16T04:56:56;2.10;;;1.70;;
27438;SDS011;14887;51.252;7.470;2022-10-16T04:59:23;2.47;;;1.57;;
27438;SDS011;14887;51.252;7.470;2022-10-16T05:01:48;1.50;;;1.40;;
27438;SDS011;14887;51.252;7.470;2022-10-16T05:04:14;2.67;;;1.50;;
27438;SDS011;14887;51.252;7.470;2022-10-16T05:06:40;1.40;;;1.30;;
27438;SDS011;14887;51.252;7.470;2022-10-16T05:09:06;4.80;;;1.50;;
27438;SDS011;14887;51.252;7.470;2022-10-16T05:11:33;2.67;;;1.90;;
27438;SDS011;14887;51.252;7.470;2022-10-16T05:13:59;1.80;;;1.70;;
27438;SDS011;14887;51.252;7.470;2022-10-16T05:16:25;1.60;;;1.50;;
27438;SDS011;14887;51.252;7.470;2022-10-16T05:18:51;1.60;;;1.50;;
27438;SDS011;14887;51.252;7.470;2022-10-16T05:21:17;3.60;;;1.77;;
27438;SDS011;14887;51.252;7.470;2022-10-16T05:23:43;1.80;;;1.60;;
27438;SDS011;14887;51.252;7.470;2022-10-16T05:26:08;1.70;;;1.60;;
27438;SDS011;14887;51.252;7.470;2022-10-16T05:28:34;3.87;;;1.80;;
27438;SDS011;14887;51.252;7.470;2022-10-16T05:31:03;1.70;;;1.60;;
27438;SDS011;14887;51.252;7.470;2022-10-16T05:33:29;3.63;;;1.50;;
27438;SDS011;14887;51.252;7.470;2022-10-16T05:35:55;2.27;;;1.73;;
27438;SDS011;14887;51.252;7.470;2022-10-16T05:38:21;3.40;;;2.10;;
27438;SDS011;14887;51.252;7.470;2022-10-16T05:40:53;3.27;;;2.20;;
27438;SDS011;14887;51.252;7.470;2022-10-16T05:43:26;2.23;;;2.03;;
27438;SDS011;14887;51.252;7.470;2022-10-16T05:45:57;2.90;;;2.60;;
27438;SDS011;14887;51.252;7.470;2022-10-16T05:48:24;2.70;;;2.17;;
27438;SDS011;14887;51.252;7.470;2022-10-16T05:50:58;8.00;;;2.27;;
27438;SDS011;14887;51.252;7.470;2022-10-16T05:53:28;10.93;;;2.10;;
27438;SDS011;14887;51.252;7.470;2022-10-16T05:56:02;2.47;;;1.90;;
27438;SDS011;14887;51.252;7.470;2022-10-16T05:58:29;2.07;;;1.87;;
27438;SDS011;14887;51.252;7.470;2022-10-16T06:01:00;3.60;;;2.70;;
27438;SDS011;14887;51.252;7.470;2022-10-16T06:03:28;2.50;;;2.23;;
27438;SDS011;14887;51.252;7.470;2022-10-16T06:05:53;2.47;;;2.27;;
27438;SDS011;14887;51.252;7.470;2022-10-16T06:08:20;3.90;;;2.43;;
27438;SDS011;14887;51.252;7.470;2022-10-16T06:10:47;3.80;;;2.83;;
27438;SDS011;14887;51.252;7.470;2022-10-16T06:13:13;2.83;;;2.33;;
27438;SDS011;14887;51.252;7.470;2022-10-16T06:15:39;3.37;;;2.97;;
27438;SDS011;14887;51.252;7.470;2022-10-16T06:18:07;4.23;;;2.90;;
27438;SDS011;14887;51.252;7.470;2022-10-16T06:20:33;2.70;;;2.43;;
27438;SDS011;14887;51.252;7.470;2022-10-16T06:22:59;3.77;;;2.53;;
27438;SDS011;14887;51.252;7.470;2022-10-16T06:25:24;3.20;;;2.90;;
27438;SDS011;14887;51.252;7.470;2022-10-16T06:27:50;2.80;;;2.60;;
27438;SDS011;14887;51.252;7.470;2022-10-16T06:30:15;2.93;;;2.63;;
27438;SDS011;14887;51.252;7.470;2022-10-16T06:32:41;3.27;;;2.50;;
27438;SDS011;14887;51.252;7.470;2022-10-16T06:35:07;3.30;;;3.00;;
27438;SDS011;14887;51.252;7.470;2022-10-16T06:37:32;5.57;;;2.87;;
27438;SDS011;14887;51.252;7.470;2022-10-16T06:39:58;3.30;;;2.73;;
27438;SDS011;14887;51.252;7.470;2022-10-16T06:42:24;2.40;;;2.20;;
27438;SDS011;14887;51.252;7.470;2022-10-16T06:44:50;3.70;;;2.47;;
27438;SDS011;14887;51.252;7.470;2022-10-16T06:47:16;4.73;;;2.67;;
27438;SDS011;14887;51.252;7.470;2022-10-16T06:49:48;3.60;;;2.60;;
27438;SDS011;14887;51.252;7.470;2022-10-16T06:52:13;2.90;;;2.60;;
27438;SDS011;14887;51.252;7.470;2022-10-16T06:54:39;4.00;;;2.87;;
27438;SDS011;14887;51.252;7.470;2022-10-16T06:57:04;2.40;;;2.20;;
27438;SDS011;14887;51.252;7.470;2022-10-16T06:59:30;4.10;;;3.17;;
27438;SDS011;14887;51.252;7.470;2022-10-16T07:01:55;10.20;;;3.10;;
27438;SDS011;14887;51.252;7.470;2022-10-16T07:04:21;4.70;;;2.47;;
27438;SDS011;14887;51.252;7.470;2022-10-16T07:06:46;3.00;;;2.60;;
27438;SDS011;14887;51.252;7.470;2022-10-16T07:09:12;4.60;;;2.77;;
27438;SDS011;14887;51.252;7.470;2022-10-16T07:11:38;3.90;;;2.27;;
27438;SDS011;14887;51.252;7.470;2022-10-16T07:14:05;2.23;;;2.03;;
27438;SDS011;14887;51.252;7.470;2022-10-16T07:16:39;2.23;;;2.13;;
27438;SDS011;14887;51.252;7.470;2022-10-16T07:19:05;4.77;;;2.13;;
27438;SDS011;14887;51.252;7.470;2022-10-16T07:21:31;6.10;;;2.57;;
27438;SDS011;14887;51.252;7.470;2022-10-16T07:24:02;4.87;;;2.80;;
27438;SDS011;14887;51.252;7.470;2022-10-16T07:26:30;3.00;;;2.50;;
27438;SDS011;14887;51.252;7.470;2022-10-16T07:28:57;2.73;;;2.27;;
27438;SDS011;14887;51.252;7.470;2022-10-16T07:31:23;5.27;;;2.53;;
27438;SDS011;14887;51.252;7.470;2022-10-16T07:33:50;2.40;;;2.13;;
27438;SDS011;14887;51.252;7.470;2022-10-16T07:36:17;1.83;;;1.73;;
27438;SDS011;14887;51.252;7.470;2022-10-16T07:38:44;2.27;;;1.70;;
27438;SDS011;14887;51.252;7.470;2022-10-16T07:41:17;3.97;;;1.47;;
27438;SDS011;14887;51.252;7.470;2022-10-16T07:43:50;4.00;;;1.93;;
27438;SDS011;14887;51.252;7.470;2022-10-16T07:46:18;1.90;;;1.70;;
27438;SDS011;14887;51.252;7.470;2022-10-16T07:48:44;2.70;;;2.10;;
27438;SDS011;14887;51.252;7.470;2022-10-16T07:51:12;2.20;;;1.90;;
27438;SDS011;14887;51.252;7.470;2022-10-16T07:53:39;6.27;;;1.60;;
27438;SDS011;14887;51.252;7.470;2022-10-16T07:56:05;2.77;;;2.50;;
27438;SDS011;14887;51.252;7.470;2022-10-16T07:58:32;1.53;;;1.43;;
27438;SDS011;14887;51.252;7.470;2022-10-16T08:00:59;2.10;;;1.83;;
27438;SDS011;14887;51.252;7.470;2022-10-16T08:03:29;3.53;;;1.90;;
27438;SDS011;14887;51.252;7.470;2022-10-16T08:05:56;2.63;;;2.00;;
27438;SDS011;14887;51.252;7.470;2022-10-16T08:08:22;3.97;;;2.90;;
27438;SDS011;14887;51.252;7.470;2022-10-16T08:10:48;2.37;;;2.03;;
27438;SDS011;14887;51.252;7.470;2022-10-16T08:13:13;6.20;;;2.20;;
27438;SDS011;14887;51.252;7.470;2022-10-16T08:15:40;4.20;;;1.93;;
27438;SDS011;14887;51.252;7.470;2022-10-16T08:18:06;2.23;;;1.77;;
27438;SDS011;14887;51.252;7.470;2022-10-16T08:20:32;2.77;;;1.50;;
27438;SDS011;14887;51.252;7.470;2022-10-16T08:22:58;1.73;;;1.60;;
27438;SDS011;14887;51.252;7.470;2022-10-16T08:25:24;2.30;;;2.10;;
27438;SDS011;14887;51.252;7.470;2022-10-16T08:27:50;1.83;;;1.70;;
27438;SDS011;14887;51.252;7.470;2022-10-16T08:30:16;3.90;;;1.70;;
27438;SDS011;14887;51.252;7.470;2022-10-16T08:32:43;6.47;;;4.00;;
27438;SDS011;14887;51.252;7.470;2022-10-16T08:35:09;2.20;;;1.93;;
27438;SDS011;14887;51.252;7.470;2022-10-16T08:37:36;1.53;;;1.43;;
27438;SDS011;14887;51.252;7.470;2022-10-16T08:40:02;3.43;;;1.50;;
27438;SDS011;14887;51.252;7.470;2022-10-16T08:42:32;1.60;;;1.17;;
27438;SDS011;14887;51.252;7.470;2022-10-16T08:48:06;1.43;;;1.20;;
27438;SDS011;14887;51.252;7.470;2022-10-16T08:50:42;1.53;;;1.10;;
27438;SDS011;14887;51.252;7.470;2022-10-16T08:53:10;3.00;;;1.17;;
27438;SDS011;14887;51.252;7.470;2022-10-16T08:55:44;1.20;;;1.03;;
27438;SDS011;14887;51.252;7.470;2022-10-16T08:58:16;2.20;;;1.43;;
27438;SDS011;14887;51.252;7.470;2022-10-16T09:00:47;5.40;;;1.30;;
27438;SDS011;14887;51.252;7.470;2022-10-16T09:07:09;4.40;;;1.10;;
27438;SDS011;14887;51.252;7.470;2022-10-16T09:12:17;2.27;;;0.90;;
27438;SDS011;14887;51.252;7.470;2022-10-16T09:17:37;2.73;;;1.20;;
27438;SDS011;14887;51.252;7.470;2022-10-16T09:20:19;1.70;;;1.00;;
27438;SDS011;14887;51.252;7.470;2022-10-16T09:23:00;1.53;;;1.10;;
27438;SDS011;14887;51.252;7.470;2022-10-16T09:25:29;2.40;;;0.90;;
27438;SDS011;14887;51.252;7.470;2022-10-16T09:27:57;2.60;;;1.03;;
27438;SDS011;14887;51.252;7.470;2022-10-16T09:30:22;1.73;;;1.23;;
27438;SDS011;14887;51.252;7.470;2022-10-16T09:32:53;2.70;;;0.90;;
27438;SDS011;14887;51.252;7.470;2022-10-16T09:35:20;6.83;;;0.80;;
27438;SDS011;14887;51.252;7.470;2022-10-16T09:37:48;3.20;;;0.90;;
27438;SDS011;14887;51.252;7.470;2022-10-16T09:40:32;2.50;;;1.00;;
27438;SDS011;14887;51.252;7.470;2022-10-16T09:43:02;1.77;;;0.90;;
27438;SDS011;14887;51.252;7.470;2022-10-16T09:45:28;1.13;;;0.80;;
27438;SDS011;14887;51.252;7.470;2022-10-16T09:47:54;2.30;;;1.13;;
27438;SDS011;14887;51.252;7.470;2022-10-16T09:50:22;2.10;;;1.30;;
27438;SDS011;14887;51.252;7.470;2022-10-16T09:52:50;4.20;;;1.23;;
27438;SDS011;14887;51.252;7.470;2022-10-16T09:55:16;1.90;;;1.33;;
27438;SDS011;14887;51.252;7.470;2022-10-16T09:57:52;5.30;;;1.50;;
27438;SDS011;14887;51.252;7.470;2022-10-16T10:00:19;1.43;;;1.00;;
27438;SDS011;14887;51.252;7.470;2022-10-16T10:02:46;3.03;;;1.30;;
27438;SDS011;14887;51.252;7.470;2022-10-16T10:05:47;1.53;;;0.90;;
27438;SDS011;14887;51.252;7.470;2022-10-16T10:08:04;3.97;;;0.93;;
27438;SDS011;14887;51.252;7.470;2022-10-16T10:10:32;3.80;;;1.03;;
27438;SDS011;14887;51.252;7.470;2022-10-16T10:13:28;3.30;;;0.90;;
27438;SDS011;14887;51.252;7.470;2022-10-16T10:15:52;2.07;;;1.20;;
27438;SDS011;14887;51.252;7.470;2022-10-16T10:18:19;1.87;;;1.00;;
27438;SDS011;14887;51.252;7.470;2022-10-16T10:20:56;6.53;;;1.30;;
27438;SDS011;14887;51.252;7.470;2022-10-16T10:23:24;1.10;;;0.77;;
27438;SDS011;14887;51.252;7.470;2022-10-16T10:26:07;3.27;;;1.30;;
27438;SDS011;14887;51.252;7.470;2022-10-16T10:31:26;4.40;;;0.80;;
27438;SDS011;14887;51.252;7.470;2022-10-16T10:42:50;2.83;;;0.83;;
27438;SDS011;14887;51.252;7.470;2022-10-16T10:45:44;3.77;;;0.90;;
27438;SDS011;14887;51.252;7.470;2022-10-16T10:52:02;2.33;;;1.10;;
27438;SDS011;14887;51.252;7.470;2022-10-16T10:54:13;1.80;;;0.70;;
27438;SDS011;14887;51.252;7.470;2022-10-16T10:59:54;1.60;;;1.30;;
27438;SDS011;14887;51.252;7.470;2022-10-16T11:02:41;7.17;;;1.40;;
27438;SDS011;14887;51.252;7.470;2022-10-16T11:05:28;2.37;;;1.00;;
27438;SDS011;14887;51.252;7.470;2022-10-16T11:11:24;0.93;;;0.70;;
27438;SDS011;14887;51.252;7.470;2022-10-16T11:16:41;0.80;;;0.67;;
27438;SDS011;14887;51.252;7.470;2022-10-16T11:19:13;1.77;;;0.80;;
27438;SDS011;14887;51.252;7.470;2022-10-16T11:21:55;6.13;;;1.17;;
27438;SDS011;14887;51.252;7.470;2022-10-16T11:25:02;1.67;;;0.70;;
27438;SDS011;14887;51.252;7.470;2022-10-16T11:27:40;1.13;;;0.80;;
27438;SDS011;14887;51.252;7.470;2022-10-16T11:30:16;3.80;;;0.70;;
27438;SDS011;14887;51.252;7.470;2022-10-16T11:35:51;2.50;;;0.80;;
27438;SDS011;14887;51.252;7.470;2022-10-16T11:38:27;0.83;;;0.60;;
27438;SDS011;14887;51.252;7.470;2022-10-16T11:41:28;5.87;;;0.90;;
27438;SDS011;14887;51.252;7.470;2022-10-16T11:44:00;3.43;;;1.93;;
27438;SDS011;14887;51.252;7.470;2022-10-16T11:46:35;0.93;;;0.80;;
27438;SDS011;14887;51.252;7.470;2022-10-16T11:51:38;2.60;;;0.80;;
27438;SDS011;14887;51.252;7.470;2022-10-16T11:54:25;1.50;;;0.80;;
27438;SDS011;14887;51.252;7.470;2022-10-16T11:57:00;4.43;;;1.13;;
27438;SDS011;14887;51.252;7.470;2022-10-16T12:00:14;1.40;;;0.70;;
27438;SDS011;14887;51.252;7.470;2022-10-16T12:02:33;1.43;;;0.83;;
27438;SDS011;14887;51.252;7.470;2022-10-16T12:08:13;1.30;;;0.77;;
27438;SDS011;14887;51.252;7.470;2022-10-16T12:10:41;4.23;;;0.87;;
27438;SDS011;14887;51.252;7.470;2022-10-16T12:16:05;1.83;;;0.70;;
27438;SDS011;14887;51.252;7.470;2022-10-16T12:18:32;1.83;;;0.90;;
27438;SDS011;14887;51.252;7.470;2022-10-16T12:20:58;1.33;;;0.77;;
27438;SDS011;14887;51.252;7.470;2022-10-16T12:23:29;5.37;;;0.83;;
27438;SDS011;14887;51.252;7.470;2022-10-16T12:25:57;2.80;;;0.70;;
27438;SDS011;14887;51.252;7.470;2022-10-16T12:28:27;3.93;;;1.00;;
27438;SDS011;14887;51.252;7.470;2022-10-16T12:30:59;3.63;;;0.90;;
27438;SDS011;14887;51.252;7.470;2022-10-16T12:33:28;3.23;;;1.03;;
27438;SDS011;14887;51.252;7.470;2022-10-16T12:35:56;2.30;;;0.70;;
27438;SDS011;14887;51.252;7.470;2022-10-16T12:38:36;1.40;;;0.70;;
27438;SDS011;14887;51.252;7.470;2022-10-16T12:41:11;1.73;;;0.70;;
27438;SDS011;14887;51.252;7.470;2022-10-16T12:43:40;2.30;;;0.70;;
27438;SDS011;14887;51.252;7.470;2022-10-16T12:48:41;1.43;;;0.77;;
27438;SDS011;14887;51.252;7.470;2022-10-16T12:51:22;0.80;;;0.70;;
27438;SDS011;14887;51.252;7.470;2022-10-16T12:53:58;2.27;;;0.87;;
27438;SDS011;14887;51.252;7.470;2022-10-16T12:56:43;1.40;;;0.97;;
27438;SDS011;14887;51.252;7.470;2022-10-16T13:20:10;1.10;;;0.80;;
27438;SDS011;14887;51.252;7.470;2022-10-16T13:33:16;2.73;;;1.33;;
27438;SDS011;14887;51.252;7.470;2022-10-16T13:35:53;1.93;;;0.80;;
27438;SDS011;14887;51.252;7.470;2022-10-16T13:38:21;3.80;;;0.77;;
27438;SDS011;14887;51.252;7.470;2022-10-16T13:40:49;2.50;;;0.60;;
27438;SDS011;14887;51.252;7.470;2022-10-16T13:43:17;0.80;;;0.60;;
27438;SDS011;14887;51.252;7.470;2022-10-16T13:45:57;1.23;;;0.60;;
27438;SDS011;14887;51.252;7.470;2022-10-16T13:48:28;2.93;;;0.67;;
27438;SDS011;14887;51.252;7.470;2022-10-16T13:51:05;1.97;;;0.87;;
27438;SDS011;14887;51.252;7.470;2022-10-16T13:53:36;1.67;;;0.80;;
27438;SDS011;14887;51.252;7.470;2022-10-16T13:56:03;2.83;;;1.63;;
27438;SDS011;14887;51.252;7.470;2022-10-16T13:58:30;0.93;;;0.80;;
27438;SDS011;14887;51.252;7.470;2022-10-16T14:01:00;5.90;;;1.13;;
27438;SDS011;14887;51.252;7.470;2022-10-16T14:03:28;1.00;;;0.63;;
27438;SDS011;14887;51.252;7.470;2022-10-16T14:05:55;2.40;;;0.60;;
27438;SDS011;14887;51.252;7.470;2022-10-16T14:08:24;3.50;;;0.80;;
27438;SDS011;14887;51.252;7.470;2022-10-16T14:10:53;0.80;;;0.80;;
27438;SDS011;14887;51.252;7.470;2022-10-16T14:13:28;1.00;;;0.67;;
27438;SDS011;14887;51.252;7.470;2022-10-16T14:16:08;3.70;;;0.93;;
27438;SDS011;14887;51.252;7.470;2022-10-16T14:18:35;8.33;;;4.50;;
27438;SDS011;14887;51.252;7.470;2022-10-16T14:21:04;32.13;;;13.07;;
27438;SDS011;14887;51.252;7.470;2022-10-16T14:23:38;36.53;;;19.63;;
27438;SDS011;14887;51.252;7.470;2022-10-16T14:26:06;1.60;;;1.50;;
27438;SDS011;14887;51.252;7.470;2022-10-16T14:28:36;1.53;;;0.90;;
27438;SDS011;14887;51.252;7.470;2022-10-16T14:31:02;2.30;;;0.90;;
27438;SDS011;14887;51.252;7.470;2022-10-16T14:33:45;1.40;;;0.90;;
27438;SDS011;14887;51.252;7.470;2022-10-16T14:38:42;0.93;;;0.60;;
27438;SDS011;14887;51.252;7.470;2022-10-16T14:41:13;0.80;;;0.60;;
27438;SDS011;14887;51.252;7.470;2022-10-16T14:43:41;1.43;;;0.70;;
27438;SDS011;14887;51.252;7.470;2022-10-16T14:46:18;1.57;;;0.83;;
27438;SDS011;14887;51.252;7.470;2022-10-16T14:48:57;4.73;;;0.80;;
27438;SDS011;14887;51.252;7.470;2022-10-16T14:51:29;0.70;;;0.60;;
27438;SDS011;14887;51.252;7.470;2022-10-16T14:53:55;1.63;;;1.00;;
27438;SDS011;14887;51.252;7.470;2022-10-16T14:56:22;1.20;;;0.70;;
27438;SDS011;14887;51.252;7.470;2022-10-16T14:58:49;2.63;;;0.70;;
27438;SDS011;14887;51.252;7.470;2022-10-16T15:01:16;3.10;;;1.10;;
27438;SDS011;14887;51.252;7.470;2022-10-16T15:03:42;1.40;;;0.87;;
27438;SDS011;14887;51.252;7.470;2022-10-16T15:06:09;1.73;;;0.70;;
27438;SDS011;14887;51.252;7.470;2022-10-16T15:08:37;1.00;;;0.80;;
27438;SDS011;14887;51.252;7.470;2022-10-16T15:11:03;1.40;;;1.00;;
27438;SDS011;14887;51.252;7.470;2022-10-16T15:13:29;7.13;;;1.20;;
27438;SDS011;14887;51.252;7.470;2022-10-16T15:15:54;1.40;;;0.80;;
27438;SDS011;14887;51.252;7.470;2022-10-16T15:18:20;3.23;;;0.93;;
27438;SDS011;14887;51.252;7.470;2022-10-16T15:20:49;2.63;;;0.90;;
27438;SDS011;14887;51.252;7.470;2022-10-16T15:23:16;2.03;;;0.80;;
27438;SDS011;14887;51.252;7.470;2022-10-16T15:28:12;4.93;;;3.90;;
27438;SDS011;14887;51.252;7.470;2022-10-16T15:30:39;2.73;;;1.53;;
27438;SDS011;14887;51.252;7.470;2022-10-16T15:33:08;5.90;;;4.70;;
27438;SDS011;14887;51.252;7.470;2022-10-16T15:35:49;12.53;;;7.37;;
27438;SDS011;14887;51.252;7.470;2022-10-16T15:38:17;36.70;;;21.17;;
27438;SDS011;14887;51.252;7.470;2022-10-16T15:40:43;17.20;;;9.40;;
27438;SDS011;14887;51.252;7.470;2022-10-16T15:43:10;10.30;;;7.20;;
27438;SDS011;14887;51.252;7.470;2022-10-16T15:45:36;2.50;;;1.30;;
27438;SDS011;14887;51.252;7.470;2022-10-16T15:48:02;3.40;;;1.30;;
27438;SDS011;14887;51.252;7.470;2022-10-16T15:50:28;5.20;;;3.47;;
27438;SDS011;14887;51.252;7.470;2022-10-16T15:52:55;2.20;;;1.93;;
27438;SDS011;14887;51.252;7.470;2022-10-16T15:55:21;2.50;;;1.70;;
27438;SDS011;14887;51.252;7.470;2022-10-16T15:57:46;4.30;;;1.23;;
27438;SDS011;14887;51.252;7.470;2022-10-16T16:00:13;1.67;;;1.20;;
27438;SDS011;14887;51.252;7.470;2022-10-16T16:02:41;4.60;;;1.97;;
27438;SDS011;14887;51.252;7.470;2022-10-16T16:05:08;9.33;;;1.80;;
27438;SDS011;14887;51.252;7.470;2022-10-16T16:07:35;0.97;;;0.80;;
27438;SDS011;14887;51.252;7.470;2022-10-16T16:10:01;3.07;;;1.63;;
27438;SDS011;14887;51.252;7.470;2022-10-16T16:12:28;2.50;;;1.40;;
27438;SDS011;14887;51.252;7.470;2022-10-16T16:14:53;3.03;;;1.40;;
27438;SDS011;14887;51.252;7.470;2022-10-16T16:17:19;5.87;;;2.80;;
27438;SDS011;14887;51.252;7.470;2022-10-16T16:19:45;1.30;;;1.20;;
27438;SDS011;14887;51.252;7.470;2022-10-16T16:22:11;1.37;;;1.27;;
27438;SDS011;14887;51.252;7.470;2022-10-16T16:24:36;6.50;;;3.77;;
27438;SDS011;14887;51.252;7.470;2022-10-16T16:27:02;4.40;;;1.47;;
27438;SDS011;14887;51.252;7.470;2022-10-16T16:29:27;1.63;;;1.20;;
27438;SDS011;14887;51.252;7.470;2022-10-16T16:31:53;6.00;;;1.93;;